Time;durP1;ratioP1;P1;durP2;ratioP2;P2;SDS_P1;SDS_P2;PMS_P1;PMS_P2;Temp;Humidity;BMP_temperature;BMP_pressure;BME280_temperature;BME280_humidity;BME280_pressure;Samples;Min_cycle;Max_cycle;Signal;HPM_P1;HPM_P2
2022/08/17 00:08:56;;;;;;;8.52;7.85;;;;;;;;;;5081316;28;20422;-73
2022/08/17 00:11:27;;;;;;;8.95;8.25;;;;;;;;;;5045559;28;20226;-73
2022/08/17 00:14:20;;;;;;;9.23;8.52;;;;;;;;;;5047252;28;20249;-73
2022/08/17 00:24:10;;;;;;;9.32;8.52;;;;;;;;;;5073454;28;20228;-73
2022/08/17 00:26:36;;;;;;;8.90;8.30;;;;;;;;;;5033680;28;20226;-73
2022/08/17 00:29:02;;;;;;;10.57;9.77;;;;;;;;;;5078151;28;20226;-73
2022/08/17 00:31:29;;;;;;;9.60;8.85;;;;;;;;;;5053786;28;20246;-73
2022/08/17 00:34:05;;;;;;;10.27;9.35;;;;;;;;;;5077198;28;20234;-74
2022/08/17 00:36:35;;;;;;;9.27;8.60;;;;;;;;;;5069569;28;20300;-73
2022/08/17 00:39:04;;;;;;;9.55;8.75;;;;;;;;;;5075736;28;20257;-73
2022/08/17 00:41:29;;;;;;;9.55;8.95;;;;;;;;;;5063681;28;20218;-73
2022/08/17 00:43:59;;;;;;;10.38;9.60;;;;;;;;;;5039085;28;20219;-73
2022/08/17 00:46:29;;;;;;;10.55;9.27;;;;;;;;;;5045102;28;21012;-73
2022/08/17 00:48:55;;;;;;;11.35;9.88;;;;;;;;;;5061408;28;20215;-73
2022/08/17 00:51:20;;;;;;;10.27;9.40;;;;;;;;;;5059052;28;20230;-73
2022/08/17 00:53:50;;;;;;;9.70;9.00;;;;;;;;;;5067360;28;20234;-73
2022/08/17 00:56:19;;;;;;;9.63;8.85;;;;;;;;;;5060961;28;20280;-73
2022/08/17 00:58:47;;;;;;;9.55;8.90;;;;;;;;;;5040328;28;20853;-73
2022/08/17 01:01:15;;;;;;;9.43;8.73;;;;;;;;;;5027445;28;20734;-73
2022/08/17 01:03:40;;;;;;;10.52;9.73;;;;;;;;;;5044279;28;20355;-73
2022/08/17 01:06:08;;;;;;;10.95;8.60;;;;;;;;;;5043989;28;20839;-73
2022/08/17 01:08:33;;;;;;;9.27;8.68;;;;;;;;;;5029472;28;20271;-73
2022/08/17 01:11:00;;;;;;;10.45;9.55;;;;;;;;;;5050534;28;20230;-73
2022/08/17 01:13:36;;;;;;;9.57;8.98;;;;;;;;;;5057719;28;20222;-73
2022/08/17 01:16:06;;;;;;;10.57;9.68;;;;;;;;;;5060579;28;20225;-73
2022/08/17 01:18:36;;;;;;;9.77;8.98;;;;;;;;;;5060734;28;20215;-73
2022/08/17 01:21:06;;;;;;;9.40;8.80;;;;;;;;;;5075670;28;20218;-73
2022/08/17 01:23:35;;;;;;;10.07;9.32;;;;;;;;;;5040280;28;20351;-73
2022/08/17 01:26:05;;;;;;;9.85;9.15;;;;;;;;;;5077746;28;20742;-73
2022/08/17 01:28:31;;;;;;;10.38;9.63;;;;;;;;;;5061152;28;20747;-73
2022/08/17 01:31:02;;;;;;;10.32;9.52;;;;;;;;;;5058426;28;20214;-74
2022/08/17 01:33:33;;;;;;;9.15;8.55;;;;;;;;;;5078297;28;20227;-73
2022/08/17 01:36:01;;;;;;;9.75;8.95;;;;;;;;;;5041237;28;20241;-72
2022/08/17 01:38:30;;;;;;;9.70;9.00;;;;;;;;;;5072666;28;20276;-73
2022/08/17 01:41:08;;;;;;;9.77;8.77;;;;;;;;;;5045965;28;20245;-73
2022/08/17 01:43:42;;;;;;;9.23;8.55;;;;;;;;;;5050297;28;20275;-73
2022/08/17 01:46:08;;;;;;;9.80;9.10;;;;;;;;;;5023272;28;20228;-73
2022/08/17 01:48:37;;;;;;;10.32;9.52;;;;;;;;;;5057019;28;20233;-73
2022/08/17 01:51:04;;;;;;;10.50;9.70;;;;;;;;;;5058081;28;20320;-72
2022/08/17 01:53:36;;;;;;;10.73;9.93;;;;;;;;;;5075672;28;20234;-73
2022/08/17 01:56:06;;;;;;;10.27;9.55;;;;;;;;;;5068570;28;20222;-73
2022/08/17 01:58:34;;;;;;;11.02;10.13;;;;;;;;;;5067165;28;20600;-73
2022/08/17 02:01:01;;;;;;;10.48;9.63;;;;;;;;;;5065972;28;20215;-73
2022/08/17 02:03:29;;;;;;;10.70;9.77;;;;;;;;;;5058205;28;20998;-73
2022/08/17 02:05:55;;;;;;;9.85;9.15;;;;;;;;;;5054069;28;20301;-74
2022/08/17 02:08:23;;;;;;;10.20;9.50;;;;;;;;;;5043883;28;20334;-73
2022/08/17 02:10:54;;;;;;;10.35;9.52;;;;;;;;;;5054784;28;20720;-73
2022/08/17 02:13:22;;;;;;;9.10;8.50;;;;;;;;;;5075104;28;20237;-74
2022/08/17 02:15:50;;;;;;;9.60;8.90;;;;;;;;;;5056917;28;20225;-73
2022/08/17 02:18:16;;;;;;;9.45;8.77;;;;;;;;;;5065762;28;20241;-73
2022/08/17 02:20:44;;;;;;;9.48;8.77;;;;;;;;;;5074545;28;20613;-73
2022/08/17 02:23:12;;;;;;;9.80;9.00;;;;;;;;;;5071625;28;20214;-73
2022/08/17 02:25:38;;;;;;;12.48;9.43;;;;;;;;;;5046507;28;20491;-73
2022/08/17 02:28:06;;;;;;;10.25;9.55;;;;;;;;;;5047799;28;20368;-73
2022/08/17 02:30:36;;;;;;;10.68;9.52;;;;;;;;;;5059870;28;20226;-74
2022/08/17 02:33:05;;;;;;;10.68;9.68;;;;;;;;;;5038989;28;20226;-73
2022/08/17 02:35:30;;;;;;;10.73;9.95;;;;;;;;;;5072512;28;20226;-73
2022/08/17 02:38:00;;;;;;;10.30;9.60;;;;;;;;;;5066213;28;20226;-73
2022/08/17 02:40:28;;;;;;;11.40;10.50;;;;;;;;;;5059569;28;20246;-73
2022/08/17 02:42:56;;;;;;;10.43;9.63;;;;;;;;;;5032952;28;20275;-74
2022/08/17 02:45:24;;;;;;;11.23;10.38;;;;;;;;;;5077853;28;20218;-73
2022/08/17 02:47:52;;;;;;;10.95;10.05;;;;;;;;;;5050939;28;20231;-73
2022/08/17 02:50:23;;;;;;;10.32;9.52;;;;;;;;;;5039616;28;20226;-73
2022/08/17 02:52:52;;;;;;;10.40;9.60;;;;;;;;;;5082015;28;20279;-73
2022/08/17 02:55:23;;;;;;;9.55;8.95;;;;;;;;;;5030769;28;20225;-73
2022/08/17 02:57:49;;;;;;;10.32;9.63;;;;;;;;;;5057212;28;20254;-73
2022/08/17 03:00:27;;;;;;;12.02;9.48;;;;;;;;;;5045577;28;20257;-73
2022/08/17 03:02:55;;;;;;;10.20;9.50;;;;;;;;;;5077439;28;20253;-73
2022/08/17 03:05:25;;;;;;;10.48;9.77;;;;;;;;;;5060782;28;20305;-74
2022/08/17 03:07:53;;;;;;;10.52;9.57;;;;;;;;;;5021832;28;20233;-73
2022/08/17 03:10:25;;;;;;;11.68;10.52;;;;;;;;;;5080253;28;20226;-73
2022/08/17 03:12:53;;;;;;;11.05;10.15;;;;;;;;;;5065512;28;20209;-74
2022/08/17 03:15:23;;;;;;;10.95;10.05;;;;;;;;;;5077184;28;20217;-73
2022/08/17 03:17:54;;;;;;;10.18;9.48;;;;;;;;;;5045991;28;20218;-73
2022/08/17 03:20:22;;;;;;;10.60;9.85;;;;;;;;;;5039455;28;20894;-73
2022/08/17 03:22:50;;;;;;;9.93;9.23;;;;;;;;;;5063449;28;20271;-73
2022/08/17 03:25:25;;;;;;;10.38;9.63;;;;;;;;;;5044871;28;20268;-73
2022/08/17 03:27:51;;;;;;;10.35;9.55;;;;;;;;;;5049939;28;20772;-74
2022/08/17 03:30:16;;;;;;;9.35;8.65;;;;;;;;;;5036469;28;20305;-73
2022/08/17 03:32:46;;;;;;;9.60;8.90;;;;;;;;;;5067209;28;20575;-73
2022/08/17 03:35:12;;;;;;;9.90;9.15;;;;;;;;;;5065633;28;20222;-73
2022/08/17 03:37:38;;;;;;;9.00;8.30;;;;;;;;;;5073023;28;20225;-73
2022/08/17 03:40:06;;;;;;;8.95;8.35;;;;;;;;;;5057343;28;20218;-74
2022/08/17 03:42:33;;;;;;;9.43;8.65;;;;;;;;;;5070397;28;20219;-73
2022/08/17 03:44:58;;;;;;;9.93;9.13;;;;;;;;;;5054173;28;20376;-73
2022/08/17 03:58:32;;;;;;;9.63;8.93;;;;;;;;;;5076864;28;20234;-74
2022/08/17 04:00:58;;;;;;;10.13;9.23;;;;;;;;;;5060963;28;20368;-73
2022/08/17 04:03:23;;;;;;;10.55;9.75;;;;;;;;;;5040967;28;20226;-72
2022/08/17 04:05:51;;;;;;;10.55;9.23;;;;;;;;;;5072354;28;20272;-73
2022/08/17 04:08:16;;;;;;;9.60;8.77;;;;;;;;;;5064010;28;20718;-73
2022/08/17 04:10:44;;;;;;;9.73;8.93;;;;;;;;;;5078120;28;20238;-73
2022/08/17 04:13:10;;;;;;;10.25;9.45;;;;;;;;;;5044177;28;20256;-73
2022/08/17 04:15:35;;;;;;;10.50;9.68;;;;;;;;;;5060450;28;20226;-73
2022/08/17 04:18:03;;;;;;;10.15;9.45;;;;;;;;;;5082664;28;20229;-73
2022/08/17 04:20:29;;;;;;;10.32;9.63;;;;;;;;;;5074048;28;20214;-73
2022/08/17 04:23:08;;;;;;;9.85;9.07;;;;;;;;;;5070323;28;20230;-73
2022/08/17 04:25:37;;;;;;;9.73;8.93;;;;;;;;;;5068439;28;20266;-73
2022/08/17 04:28:05;;;;;;;10.25;9.45;;;;;;;;;;5038555;28;20259;-72
2022/08/17 04:30:32;;;;;;;9.55;8.95;;;;;;;;;;5079607;28;20225;-73
2022/08/17 04:33:19;;;;;;;10.75;9.90;;;;;;;;;;5058839;28;20250;-72
2022/08/17 04:35:46;;;;;;;10.30;9.50;;;;;;;;;;5036514;28;20218;-73
2022/08/17 04:38:19;;;;;;;10.55;9.80;;;;;;;;;;5078096;28;20246;-73
2022/08/17 04:43:31;;;;;;;10.55;9.63;;;;;;;;;;5076950;28;20226;-73
2022/08/17 04:46:01;;;;;;;10.45;9.52;;;;;;;;;;5060162;28;20271;-74
2022/08/17 04:48:39;;;;;;;10.23;9.43;;;;;;;;;;5051836;28;20218;-73
2022/08/17 04:51:13;;;;;;;10.40;9.50;;;;;;;;;;5072426;28;20224;-73
2022/08/17 04:53:43;;;;;;;10.15;9.35;;;;;;;;;;5055658;28;20237;-73
2022/08/17 04:56:09;;;;;;;9.88;9.07;;;;;;;;;;5052784;28;20223;-72
2022/08/17 04:58:37;;;;;;;9.38;8.57;;;;;;;;;;5079139;28;20225;-74
2022/08/17 05:01:02;;;;;;;9.25;8.55;;;;;;;;;;5067087;28;20742;-72
2022/08/17 05:03:28;;;;;;;9.15;8.45;;;;;;;;;;5072887;28;20217;-72
2022/08/17 05:05:53;;;;;;;9.75;9.05;;;;;;;;;;5043781;28;20696;-73
2022/08/17 05:08:23;;;;;;;9.10;8.40;;;;;;;;;;5041671;28;20245;-72
2022/08/17 05:10:49;;;;;;;9.18;8.57;;;;;;;;;;5073450;28;20313;-73
2022/08/17 05:13:21;;;;;;;9.45;8.75;;;;;;;;;;5051422;28;20226;-74
2022/08/17 05:15:53;;;;;;;9.50;8.57;;;;;;;;;;5075452;28;20221;-72
2022/08/17 05:18:19;;;;;;;9.20;8.60;;;;;;;;;;5061374;28;20280;-74
2022/08/17 05:20:47;;;;;;;8.73;8.07;;;;;;;;;;5070273;28;20223;-75
2022/08/17 05:23:13;;;;;;;8.90;8.23;;;;;;;;;;5076819;28;20268;-73
2022/08/17 05:25:41;;;;;;;13.77;9.38;;;;;;;;;;5073501;28;20712;-72
2022/08/17 05:28:07;;;;;;;8.63;8.02;;;;;;;;;;5063464;28;20735;-72
2022/08/17 05:30:33;;;;;;;9.55;8.65;;;;;;;;;;5069692;28;20232;-73
2022/08/17 05:33:01;;;;;;;8.45;7.85;;;;;;;;;;5057968;28;20219;-72
2022/08/17 05:35:28;;;;;;;11.65;8.18;;;;;;;;;;5083534;28;20233;-72
2022/08/17 05:37:53;;;;;;;8.50;7.70;;;;;;;;;;5068711;28;20220;-72
2022/08/17 05:40:22;;;;;;;9.32;8.55;;;;;;;;;;5039117;28;20223;-75
2022/08/17 05:42:50;;;;;;;8.45;7.75;;;;;;;;;;5068188;28;20662;-71
2022/08/17 05:45:21;;;;;;;8.98;8.27;;;;;;;;;;5024549;28;20691;-72
2022/08/17 05:47:46;;;;;;;10.07;9.18;;;;;;;;;;5077375;28;20324;-72
2022/08/17 05:50:21;;;;;;;9.43;8.60;;;;;;;;;;5061695;28;20234;-72
2022/08/17 05:52:47;;;;;;;9.35;8.65;;;;;;;;;;5057144;28;20248;-73
2022/08/17 05:55:29;;;;;;;10.35;9.45;;;;;;;;;;5071507;28;20234;-72
2022/08/17 05:58:09;;;;;;;9.10;8.40;;;;;;;;;;5080259;28;20223;-72
2022/08/17 06:00:45;;;;;;;9.30;8.43;;;;;;;;;;5084267;28;20244;-73
2022/08/17 06:03:15;;;;;;;8.23;7.63;;;;;;;;;;5059664;28;20269;-72
2022/08/17 06:05:41;;;;;;;8.82;8.00;;;;;;;;;;5079391;28;20218;-72
2022/08/17 06:08:27;;;;;;;8.13;7.43;;;;;;;;;;5064475;28;20700;-72
2022/08/17 06:11:02;;;;;;;8.75;7.95;;;;;;;;;;5075434;28;20233;-73
2022/08/17 06:13:45;;;;;;;9.30;8.60;;;;;;;;;;5072530;28;20221;-72
2022/08/17 06:16:19;;;;;;;8.85;8.05;;;;;;;;;;5081144;28;20223;-72
2022/08/17 06:18:51;;;;;;;8.30;7.55;;;;;;;;;;5081451;28;20234;-72
2022/08/17 06:21:18;;;;;;;11.45;7.95;;;;;;;;;;5064691;28;20230;-72
2022/08/17 06:23:54;;;;;;;8.50;7.80;;;;;;;;;;5050724;28;20846;-72
2022/08/17 06:26:26;;;;;;;8.38;7.40;;;;;;;;;;5054962;28;20295;-73
2022/08/17 06:28:55;;;;;;;8.13;7.43;;;;;;;;;;5042534;28;20640;-72
2022/08/17 06:31:39;;;;;;;8.63;7.28;;;;;;;;;;5060840;28;20241;-74
2022/08/17 06:34:10;;;;;;;9.23;8.15;;;;;;;;;;5069795;28;20238;-73
2022/08/17 06:36:45;;;;;;;9.30;8.43;;;;;;;;;;5038131;28;20214;-73
2022/08/17 06:39:20;;;;;;;8.98;8.15;;;;;;;;;;5082123;28;20585;-73
2022/08/17 06:42:12;;;;;;;8.43;7.72;;;;;;;;;;5066177;28;20351;-73
2022/08/17 06:44:54;;;;;;;9.55;8.38;;;;;;;;;;5083566;28;20230;-73
2022/08/17 06:47:28;;;;;;;8.68;7.80;;;;;;;;;;5070877;28;20694;-73
2022/08/17 06:49:59;;;;;;;7.97;7.32;;;;;;;;;;5058570;28;20211;-73
2022/08/17 06:52:33;;;;;;;8.45;7.80;;;;;;;;;;5069937;28;20321;-74
2022/08/17 06:55:03;;;;;;;8.88;7.30;;;;;;;;;;5057219;28;21029;-72
2022/08/17 06:57:32;;;;;;;7.65;7.10;;;;;;;;;;5045035;28;20327;-73
2022/08/17 07:00:12;;;;;;;8.32;7.47;;;;;;;;;;5060687;28;20593;-73
2022/08/17 07:03:08;;;;;;;10.13;7.10;;;;;;;;;;5066559;28;20218;-73
2022/08/17 07:05:44;;;;;;;8.35;7.75;;;;;;;;;;5047676;28;20340;-73
2022/08/17 07:08:18;;;;;;;7.63;6.93;;;;;;;;;;5066751;28;20230;-73
2022/08/17 07:10:56;;;;;;;7.20;6.60;;;;;;;;;;5058021;28;20229;-74
2022/08/17 07:13:37;;;;;;;7.97;7.30;;;;;;;;;;5080155;28;20716;-74
2022/08/17 07:16:16;;;;;;;7.68;7.05;;;;;;;;;;5064262;28;20226;-73
2022/08/17 07:18:42;;;;;;;7.95;7.15;;;;;;;;;;5067390;28;20221;-73
2022/08/17 07:21:26;;;;;;;7.57;6.90;;;;;;;;;;5056689;28;20290;-74
2022/08/17 07:24:10;;;;;;;7.13;6.60;;;;;;;;;;5071791;28;20226;-74
2022/08/17 07:26:37;;;;;;;6.68;6.07;;;;;;;;;;5060355;28;20300;-74
2022/08/17 07:29:05;;;;;;;6.78;6.18;;;;;;;;;;5031977;28;20209;-73
2022/08/17 07:31:32;;;;;;;7.00;6.30;;;;;;;;;;5046578;28;20780;-74
2022/08/17 07:34:01;;;;;;;7.15;6.55;;;;;;;;;;5071002;28;20223;-73
2022/08/17 07:36:32;;;;;;;7.70;7.10;;;;;;;;;;5065041;28;20278;-75
2022/08/17 07:39:00;;;;;;;10.38;7.85;;;;;;;;;;5085400;28;20225;-74
2022/08/17 07:41:27;;;;;;;7.90;7.20;;;;;;;;;;5056984;28;20525;-73
2022/08/17 07:43:57;;;;;;;7.65;7.00;;;;;;;;;;5057473;28;20723;-73
2022/08/17 07:49:08;;;;;;;7.97;7.35;;;;;;;;;;5056594;28;20225;-73
2022/08/17 07:51:45;;;;;;;6.82;6.25;;;;;;;;;;5068992;28;20223;-73
2022/08/17 07:54:13;;;;;;;7.63;6.05;;;;;;;;;;5074933;28;20230;-74
2022/08/17 07:56:47;;;;;;;7.05;6.32;;;;;;;;;;5075659;28;20265;-74
2022/08/17 07:59:16;;;;;;;6.60;5.40;;;;;;;;;;5081211;28;20292;-73
2022/08/17 08:02:07;;;;;;;5.38;4.88;;;;;;;;;;5077401;28;20233;-74
2022/08/17 08:04:42;;;;;;;6.47;5.13;;;;;;;;;;5045204;28;20231;-74
2022/08/17 08:07:11;;;;;;;5.60;3.95;;;;;;;;;;5042710;28;20211;-74
2022/08/17 08:09:40;;;;;;;6.05;4.50;;;;;;;;;;5079310;28;20267;-74
2022/08/17 08:12:32;;;;;;;4.60;4.20;;;;;;;;;;5073900;28;20314;-74
2022/08/17 08:15:09;;;;;;;4.95;3.90;;;;;;;;;;5069212;28;20248;-74
2022/08/17 08:17:48;;;;;;;4.43;4.03;;;;;;;;;;5081683;28;20321;-74
2022/08/17 08:20:16;;;;;;;4.38;4.00;;;;;;;;;;5075587;28;20226;-74
2022/08/17 08:23:06;;;;;;;4.35;3.95;;;;;;;;;;5067974;28;20272;-74
2022/08/17 08:25:59;;;;;;;4.88;4.10;;;;;;;;;;5068782;28;20225;-73
2022/08/17 08:28:51;;;;;;;4.47;4.07;;;;;;;;;;5060524;28;20229;-74
2022/08/17 08:31:25;;;;;;;5.38;4.28;;;;;;;;;;5083405;28;20219;-74
2022/08/17 08:34:07;;;;;;;4.30;3.90;;;;;;;;;;5083409;28;20223;-74
2022/08/17 08:36:57;;;;;;;4.03;3.65;;;;;;;;;;5071874;28;20228;-75
2022/08/17 08:39:44;;;;;;;4.28;3.83;;;;;;;;;;5072652;28;20223;-74
2022/08/17 08:42:16;;;;;;;3.70;3.40;;;;;;;;;;5059739;28;20261;-74
2022/08/17 08:44:53;;;;;;;4.03;3.63;;;;;;;;;;5076519;28;20210;-74
2022/08/17 08:47:25;;;;;;;4.20;3.80;;;;;;;;;;5067615;28;20590;-74
2022/08/17 08:50:08;;;;;;;3.80;3.55;;;;;;;;;;5074873;28;20218;-73
2022/08/17 08:52:54;;;;;;;4.03;3.55;;;;;;;;;;5056723;28;20246;-73
2022/08/17 08:55:46;;;;;;;4.05;3.65;;;;;;;;;;5076495;28;20222;-74
2022/08/17 08:58:21;;;;;;;3.95;3.65;;;;;;;;;;5078678;28;20402;-74
2022/08/17 09:00:52;;;;;;;4.22;3.78;;;;;;;;;;5037626;28;20612;-74
2022/08/17 09:03:18;;;;;;;4.22;3.50;;;;;;;;;;5060781;28;20302;-73
2022/08/17 09:05:54;;;;;;;3.70;3.40;;;;;;;;;;5065829;28;20218;-74
2022/08/17 09:08:32;;;;;;;4.78;3.63;;;;;;;;;;5073626;28;20237;-73
2022/08/17 09:11:32;;;;;;;3.70;3.50;;;;;;;;;;5076520;28;20274;-74
2022/08/17 09:14:17;;;;;;;4.05;3.40;;;;;;;;;;5071239;28;20222;-73
2022/08/17 09:17:12;;;;;;;4.13;3.80;;;;;;;;;;5063217;28;20214;-73
2022/08/17 09:20:03;;;;;;;3.60;3.40;;;;;;;;;;5067587;28;20215;-73
2022/08/17 09:22:43;;;;;;;3.40;3.20;;;;;;;;;;5066473;28;20248;-73
2022/08/17 09:25:22;;;;;;;3.80;3.40;;;;;;;;;;5066927;28;20305;-73
2022/08/17 09:27:47;;;;;;;3.90;3.63;;;;;;;;;;5039792;28;20226;-73
2022/08/17 09:30:15;;;;;;;5.93;3.67;;;;;;;;;;5079613;28;20603;-73
2022/08/17 09:32:45;;;;;;;3.97;3.67;;;;;;;;;;5043915;28;20227;-73
2022/08/17 09:35:13;;;;;;;4.68;3.63;;;;;;;;;;5079948;28;20409;-74
2022/08/17 09:38:16;;;;;;;3.78;3.47;;;;;;;;;;5075514;28;20268;-73
2022/08/17 09:41:18;;;;;;;3.95;3.55;;;;;;;;;;5067341;28;20225;-73
2022/08/17 09:44:02;;;;;;;4.10;3.70;;;;;;;;;;5068069;28;20217;-73
2022/08/17 09:46:34;;;;;;;3.70;3.40;;;;;;;;;;5069304;28;20228;-74
2022/08/17 09:49:05;;;;;;;3.58;3.28;;;;;;;;;;5074039;28;20214;-74
2022/08/17 09:51:38;;;;;;;3.97;3.58;;;;;;;;;;5070473;28;20278;-73
2022/08/17 09:54:16;;;;;;;3.72;3.35;;;;;;;;;;5033604;28;20258;-74
2022/08/17 09:56:55;;;;;;;4.32;3.72;;;;;;;;;;5043622;28;20232;-74
2022/08/17 09:59:52;;;;;;;3.67;3.38;;;;;;;;;;5074252;28;20703;-75
2022/08/17 10:02:26;;;;;;;5.35;3.63;;;;;;;;;;5061513;28;20246;-75
2022/08/17 10:05:10;;;;;;;4.03;3.63;;;;;;;;;;5078674;28;20242;-74
2022/08/17 10:07:45;;;;;;;3.53;3.22;;;;;;;;;;5060934;28;20252;-74
2022/08/17 10:10:34;;;;;;;3.22;3.03;;;;;;;;;;5077942;28;20827;-76
2022/08/17 10:13:21;;;;;;;5.05;3.55;;;;;;;;;;5076453;28;20257;-73
2022/08/17 10:15:57;;;;;;;3.70;3.22;;;;;;;;;;5076913;28;20217;-74
2022/08/17 10:18:47;;;;;;;3.83;3.53;;;;;;;;;;5049143;28;20234;-75
2022/08/17 10:27:04;;;;;;;4.13;3.83;;;;;;;;;;5060934;28;20254;-75
2022/08/17 10:29:52;;;;;;;9.45;4.30;;;;;;;;;;5059158;28;20630;-75
2022/08/17 10:32:22;;;;;;;3.55;3.33;;;;;;;;;;5074448;28;20242;-74
2022/08/17 10:35:15;;;;;;;3.90;3.60;;;;;;;;;;5062485;28;20259;-75
2022/08/17 10:38:03;;;;;;;5.00;3.65;;;;;;;;;;5073224;28;20222;-74
2022/08/17 10:40:34;;;;;;;6.70;3.47;;;;;;;;;;5073370;28;20927;-75
2022/08/17 10:43:13;;;;;;;3.38;3.05;;;;;;;;;;5070273;28;20214;-74
2022/08/17 10:45:53;;;;;;;3.72;3.50;;;;;;;;;;5065908;28;20221;-76
2022/08/17 10:48:35;;;;;;;6.45;3.78;;;;;;;;;;5056919;28;20227;-76
2022/08/17 10:51:36;;;;;;;3.55;3.25;;;;;;;;;;5066036;28;20225;-76
2022/08/17 10:54:07;;;;;;;5.63;3.30;;;;;;;;;;5073155;28;20232;-73
2022/08/17 10:56:43;;;;;;;3.58;3.28;;;;;;;;;;5066293;28;20219;-75
2022/08/17 10:59:08;;;;;;;5.05;3.55;;;;;;;;;;5058696;28;20726;-75
2022/08/17 11:01:37;;;;;;;4.78;3.22;;;;;;;;;;5058710;28;20230;-74
2022/08/17 11:04:11;;;;;;;5.60;3.67;;;;;;;;;;5064948;28;20214;-75
2022/08/17 11:06:36;;;;;;;3.67;3.33;;;;;;;;;;5058334;28;20226;-76
2022/08/17 11:09:36;;;;;;;4.50;3.20;;;;;;;;;;5060230;28;20645;-76
2022/08/17 11:12:18;;;;;;;3.50;3.20;;;;;;;;;;5054501;28;20222;-76
2022/08/17 11:14:53;;;;;;;4.72;3.55;;;;;;;;;;5076769;28;21107;-78
2022/08/17 11:17:28;;;;;;;4.35;3.63;;;;;;;;;;5070123;28;20225;-76
2022/08/17 11:20:18;;;;;;;4.50;3.40;;;;;;;;;;5065685;28;20227;-75
2022/08/17 11:23:06;;;;;;;3.53;3.20;;;;;;;;;;5078099;28;20602;-75
2022/08/17 11:25:40;;;;;;;3.38;3.10;;;;;;;;;;5073429;28;20219;-75
2022/08/17 11:28:14;;;;;;;3.72;3.35;;;;;;;;;;5074208;28;20315;-75
2022/08/17 11:30:53;;;;;;;3.75;3.22;;;;;;;;;;5045341;28;20309;-76
2022/08/17 11:33:27;;;;;;;4.15;3.30;;;;;;;;;;5059632;28;20326;-76
2022/08/17 11:36:48;;;;;;;4.57;3.50;;;;;;;;;;5074853;28;20222;-76
2022/08/17 11:39:18;;;;;;;3.10;2.80;;;;;;;;;;5068158;28;20657;-76
2022/08/17 11:41:58;;;;;;;3.25;3.00;;;;;;;;;;5073060;28;20229;-76
2022/08/17 11:44:54;;;;;;;4.22;3.28;;;;;;;;;;5085427;28;20289;-76
2022/08/17 11:53:38;;;;;;;3.25;2.92;;;;;;;;;;5080439;28;20226;-77
2022/08/17 11:56:11;;;;;;;3.50;3.20;;;;;;;;;;5072254;28;20294;-75
2022/08/17 11:58:43;;;;;;;4.22;3.10;;;;;;;;;;5077355;28;20718;-75
2022/08/17 12:01:27;;;;;;;3.75;3.45;;;;;;;;;;5063026;28;20695;-74
2022/08/17 12:03:57;;;;;;;3.42;3.22;;;;;;;;;;5077285;28;20211;-75
2022/08/17 12:06:26;;;;;;;4.43;3.53;;;;;;;;;;5071747;28;20256;-75
2022/08/17 12:08:59;;;;;;;3.65;3.35;;;;;;;;;;5072412;28;20241;-75
2022/08/17 12:11:59;;;;;;;5.32;3.20;;;;;;;;;;5067410;28;20590;-74
2022/08/17 12:14:27;;;;;;;3.42;3.13;;;;;;;;;;5071909;28;20238;-75
2022/08/17 12:17:00;;;;;;;4.28;3.10;;;;;;;;;;5063564;28;20211;-76
2022/08/17 12:19:32;;;;;;;3.70;3.40;;;;;;;;;;5076140;28;20225;-75
2022/08/17 12:22:10;;;;;;;5.05;3.22;;;;;;;;;;5055372;28;20234;-76
2022/08/17 12:24:53;;;;;;;4.30;3.20;;;;;;;;;;5085718;28;20312;-76
2022/08/17 12:27:22;;;;;;;5.28;3.20;;;;;;;;;;5079428;28;20219;-75
2022/08/17 12:29:50;;;;;;;5.07;3.30;;;;;;;;;;5060163;28;20222;-75
2022/08/17 12:32:18;;;;;;;3.92;3.10;;;;;;;;;;5050671;28;20255;-75
2022/08/17 12:34:45;;;;;;;3.60;3.30;;;;;;;;;;5050988;28;20231;-76
2022/08/17 12:37:24;;;;;;;3.47;3.28;;;;;;;;;;5056248;28;20242;-74
2022/08/17 12:40:22;;;;;;;3.53;2.85;;;;;;;;;;5053395;28;20218;-75
2022/08/17 12:42:59;;;;;;;3.92;3.28;;;;;;;;;;5076982;28;20222;-73
2022/08/17 12:45:32;;;;;;;3.83;3.50;;;;;;;;;;5076706;28;20835;-74
2022/08/17 12:48:06;;;;;;;3.90;3.35;;;;;;;;;;5056713;28;20215;-74
2022/08/17 12:50:37;;;;;;;4.97;3.20;;;;;;;;;;5069711;28;20234;-74
2022/08/17 12:53:22;;;;;;;3.95;3.13;;;;;;;;;;5041835;28;20696;-74
2022/08/17 12:55:52;;;;;;;3.00;2.80;;;;;;;;;;5061638;28;20261;-74
2022/08/17 12:58:23;;;;;;;3.65;3.38;;;;;;;;;;5068450;28;20271;-74
2022/08/17 13:00:59;;;;;;;3.53;3.15;;;;;;;;;;5046876;28;20276;-74
2022/08/17 13:03:26;;;;;;;3.40;3.20;;;;;;;;;;5048704;28;20629;-75
2022/08/17 13:05:58;;;;;;;3.53;3.22;;;;;;;;;;5060418;28;20264;-75
2022/08/17 13:08:34;;;;;;;3.10;2.90;;;;;;;;;;5069117;28;20241;-75
2022/08/17 13:11:10;;;;;;;3.20;2.97;;;;;;;;;;5052375;28;20323;-75
2022/08/17 13:13:37;;;;;;;4.72;3.10;;;;;;;;;;5066413;28;20229;-75
2022/08/17 13:16:11;;;;;;;6.75;3.15;;;;;;;;;;5062287;28;20221;-75
2022/08/17 13:18:43;;;;;;;3.72;3.15;;;;;;;;;;5075587;28;20222;-75
2022/08/17 13:21:18;;;;;;;3.13;2.92;;;;;;;;;;5076900;28;20232;-75
2022/08/17 13:24:10;;;;;;;3.58;3.08;;;;;;;;;;5082315;28;20214;-75
2022/08/17 13:26:48;;;;;;;3.40;3.20;;;;;;;;;;5076777;28;20214;-75
2022/08/17 13:29:24;;;;;;;3.35;3.03;;;;;;;;;;5050803;28;20235;-74
2022/08/17 13:31:53;;;;;;;3.85;3.30;;;;;;;;;;5059423;28;20312;-76
2022/08/17 13:34:27;;;;;;;3.38;2.95;;;;;;;;;;5079099;28;20234;-75
2022/08/17 13:37:25;;;;;;;4.55;3.38;;;;;;;;;;5076351;28;20215;-75
2022/08/17 13:39:57;;;;;;;4.05;3.17;;;;;;;;;;5072667;28;20317;-75
2022/08/17 13:42:43;;;;;;;5.90;3.25;;;;;;;;;;5070869;28;20242;-75
2022/08/17 13:45:27;;;;;;;4.18;3.20;;;;;;;;;;5084026;28;20218;-75
2022/08/17 13:48:07;;;;;;;4.13;3.10;;;;;;;;;;5072330;28;20230;-75
2022/08/17 13:50:36;;;;;;;4.75;3.47;;;;;;;;;;5075652;28;20223;-75
2022/08/17 13:53:13;;;;;;;5.30;3.10;;;;;;;;;;5066268;28;20222;-75
2022/08/17 13:55:41;;;;;;;4.85;2.72;;;;;;;;;;5052767;28;20226;-76
2022/08/17 13:58:09;;;;;;;3.30;2.85;;;;;;;;;;5027820;28;20222;-75
2022/08/17 14:00:35;;;;;;;3.92;3.58;;;;;;;;;;5043113;28;20611;-75
2022/08/17 14:03:04;;;;;;;4.30;3.28;;;;;;;;;;5043116;28;20218;-74
2022/08/17 14:05:34;;;;;;;4.10;2.85;;;;;;;;;;5057125;28;20283;-74
2022/08/17 14:08:04;;;;;;;3.47;3.22;;;;;;;;;;5074800;28;20227;-75
2022/08/17 14:10:30;;;;;;;4.70;3.45;;;;;;;;;;5077751;28;20722;-74
2022/08/17 14:12:58;;;;;;;4.75;3.20;;;;;;;;;;5078928;28;20218;-75
2022/08/17 14:15:24;;;;;;;3.58;3.28;;;;;;;;;;5060103;28;20278;-75
2022/08/17 14:17:52;;;;;;;4.20;3.30;;;;;;;;;;5042667;28;20629;-75
2022/08/17 14:20:23;;;;;;;4.25;3.30;;;;;;;;;;5056408;28;20210;-75
2022/08/17 14:22:52;;;;;;;3.58;3.28;;;;;;;;;;5060687;28;20282;-74
2022/08/17 14:25:20;;;;;;;3.50;3.03;;;;;;;;;;5073305;28;20218;-75
2022/08/17 14:27:46;;;;;;;3.55;3.25;;;;;;;;;;5074071;28;20214;-75
2022/08/17 14:30:12;;;;;;;4.00;3.15;;;;;;;;;;5061062;28;20230;-74
2022/08/17 14:32:40;;;;;;;3.50;3.20;;;;;;;;;;5074153;28;20230;-74
2022/08/17 14:35:06;;;;;;;3.67;3.38;;;;;;;;;;5044903;28;20301;-74
2022/08/17 14:37:33;;;;;;;3.55;3.17;;;;;;;;;;5047568;28;20222;-74
2022/08/17 14:40:05;;;;;;;3.50;3.20;;;;;;;;;;5067238;28;20218;-75
2022/08/17 14:42:36;;;;;;;5.20;3.38;;;;;;;;;;5067826;28;20300;-75
2022/08/17 14:45:04;;;;;;;3.97;3.50;;;;;;;;;;5079943;28;20219;-75
2022/08/17 14:47:37;;;;;;;3.72;3.40;;;;;;;;;;5043484;28;20217;-74
2022/08/17 14:50:08;;;;;;;4.03;3.30;;;;;;;;;;5064386;28;20363;-74
2022/08/17 14:52:38;;;;;;;4.82;3.00;;;;;;;;;;5062789;28;20210;-74
2022/08/17 14:55:11;;;;;;;3.40;3.10;;;;;;;;;;5060112;28;20249;-75
2022/08/17 14:57:40;;;;;;;3.50;3.20;;;;;;;;;;5041649;28;20218;-75
2022/08/17 15:00:07;;;;;;;4.47;3.38;;;;;;;;;;5073202;28;20303;-74
2022/08/17 15:02:57;;;;;;;3.65;3.13;;;;;;;;;;5070537;28;20233;-75
2022/08/17 15:05:30;;;;;;;3.80;3.28;;;;;;;;;;5048376;28;20210;-74
2022/08/17 15:07:58;;;;;;;3.67;3.28;;;;;;;;;;5060042;28;20598;-74
2022/08/17 15:10:24;;;;;;;4.57;3.15;;;;;;;;;;5053780;28;20253;-74
2022/08/17 15:12:49;;;;;;;3.45;3.10;;;;;;;;;;5039124;28;20712;-75
2022/08/17 15:15:17;;;;;;;3.63;3.03;;;;;;;;;;5070515;28;20605;-74
2022/08/17 15:17:43;;;;;;;3.80;2.90;;;;;;;;;;5064847;28;20218;-74
2022/08/17 15:20:13;;;;;;;3.25;2.95;;;;;;;;;;5031620;28;20359;-75
2022/08/17 15:22:39;;;;;;;3.72;3.42;;;;;;;;;;5063134;28;20218;-75
2022/08/17 15:25:06;;;;;;;4.28;3.28;;;;;;;;;;5047347;28;20217;-74
2022/08/17 15:27:36;;;;;;;4.72;3.55;;;;;;;;;;5049871;28;20221;-74
2022/08/17 15:30:05;;;;;;;3.60;3.30;;;;;;;;;;5042775;28;20270;-74
2022/08/17 15:32:39;;;;;;;3.60;2.97;;;;;;;;;;5072045;28;20214;-75
2022/08/17 15:35:10;;;;;;;5.50;2.78;;;;;;;;;;5070602;28;20245;-74
2022/08/17 15:37:39;;;;;;;3.55;3.28;;;;;;;;;;5025476;28;20305;-75
2022/08/17 15:40:13;;;;;;;3.75;3.00;;;;;;;;;;5079070;28;20225;-75
2022/08/17 15:42:39;;;;;;;3.65;3.35;;;;;;;;;;5063264;28;20305;-75
2022/08/17 15:45:12;;;;;;;3.95;3.28;;;;;;;;;;5070649;28;20245;-75
2022/08/17 15:47:38;;;;;;;3.72;3.30;;;;;;;;;;5032961;28;20222;-75
2022/08/17 15:50:08;;;;;;;3.63;3.28;;;;;;;;;;5071914;28;20241;-75
2022/08/17 15:52:39;;;;;;;5.78;3.20;;;;;;;;;;5065229;28;20250;-75
2022/08/17 15:55:11;;;;;;;3.13;2.83;;;;;;;;;;5036827;28;20324;-74
2022/08/17 15:57:41;;;;;;;3.63;2.85;;;;;;;;;;5049678;28;20233;-75
2022/08/17 16:00:09;;;;;;;5.10;3.25;;;;;;;;;;5064009;28;20226;-75